Time,TemperatureF,DewpointF,PressureIn,WindDirection,WindDirectionDegrees,WindSpeedMPH,WindSpeedGustMPH,Humidity,HourlyPrecipIn,Conditions,Clouds,dailyrainin,SoftwareType,DateUTC
2013-03-06 00:00:00,43.6,40.2,29.53,WSW,248,0.7,4.3,88,0.00,,,0.00,WUHU216HW,2013-03-06 05:00:00,
2013-03-06 00:05:00,43.6,40.2,29.53,NE,45,0.9,4.3,88,0.00,,,0.00,WUHU216HW,2013-03-06 05:05:00,
2013-03-06 00:10:00,43.4,40.1,29.52,East,90,0.2,2.2,88,0.00,,,0.00,WUHU216HW,2013-03-06 05:10:00,
2013-03-06 00:15:00,43.6,40.2,29.51,East,90,0.0,1.8,88,0.00,,,0.00,WUHU216HW,2013-03-06 05:15:00,
2013-03-06 00:20:00,43.4,40.1,29.51,East,90,1.6,1.8,88,0.00,,,0.00,WUHU216HW,2013-03-06 05:20:00,
2013-03-06 00:25:00,43.4,40.1,29.51,East,90,0.4,2.2,88,0.00,,,0.00,WUHU216HW,2013-03-06 05:25:00,
2013-03-06 00:30:00,43.6,40.2,29.50,SE,135,0.4,2.2,88,0.00,,,0.00,WUHU216HW,2013-03-06 05:30:00,
2013-03-06 00:35:00,43.6,40.2,29.49,East,90,2.2,2.9,88,0.00,,,0.00,WUHU216HW,2013-03-06 05:35:00,
2013-03-06 00:40:00,43.4,40.1,29.49,WSW,248,0.4,2.9,88,0.00,,,0.00,WUHU216HW,2013-03-06 05:40:00,
2013-03-06 00:45:00,43.4,40.1,29.49,West,270,0.0,1.8,88,0.00,,,0.00,WUHU216HW,2013-03-06 05:45:00,
2013-03-06 00:50:00,43.4,40.1,29.49,ENE,68,0.0,1.1,88,0.00,,,0.00,WUHU216HW,2013-03-06 05:50:00,
2013-03-06 00:55:00,43.6,40.2,29.49,ENE,68,0.0,1.1,88,0.00,,,0.00,WUHU216HW,2013-03-06 05:55:00,
2013-03-06 01:00:00,43.6,40.2,29.49,NW,315,0.4,0.4,88,0.00,,,0.00,WUHU216HW,2013-03-06 06:00:00,
2013-03-06 01:05:00,43.6,40.2,29.49,SE,135,0.0,0.9,88,0.00,,,0.00,WUHU216HW,2013-03-06 06:05:00,
2013-03-06 01:10:00,43.6,40.0,29.48,SE,135,0.0,0.9,87,0.00,,,0.00,WUHU216HW,2013-03-06 06:10:00,
2013-03-06 01:15:00,43.6,40.2,29.48,East,90,0.0,0.4,88,0.00,,,0.00,WUHU216HW,2013-03-06 06:15:00,
2013-03-06 01:20:00,43.6,40.2,29.47,East,90,0.0,0.2,88,0.00,,,0.00,WUHU216HW,2013-03-06 06:20:00,
2013-03-06 01:25:00,43.6,40.2,29.47,WNW,293,0.0,0.4,88,0.00,,,0.00,WUHU216HW,2013-03-06 06:25:00,
2013-03-06 01:30:00,43.6,40.2,29.47,SE,135,0.4,0.4,88,0.00,,,0.00,WUHU216HW,2013-03-06 06:30:00,
2013-03-06 01:35:00,43.6,40.0,29.47,SE,135,0.0,0.7,87,0.00,,,0.00,WUHU216HW,2013-03-06 06:35:00,
2013-03-06 01:40:00,43.6,40.0,29.46,SE,135,0.0,0.7,87,0.00,,,0.00,WUHU216HW,2013-03-06 06:40:00,
2013-03-06 01:45:00,43.6,40.0,29.46,SE,135,0.0,0.0,87,0.00,,,0.00,WUHU216HW,2013-03-06 06:45:00,
2013-03-06 01:50:00,43.7,40.2,29.46,SE,135,0.2,0.4,87,0.00,,,0.00,WUHU216HW,2013-03-06 06:50:00,
2013-03-06 01:55:00,43.6,40.0,29.46,ESE,113,0.4,1.1,87,0.00,,,0.00,WUHU216HW,2013-03-06 06:55:00,
2013-03-06 02:00:00,43.6,40.2,29.46,North,0,0.0,1.1,88,0.00,,,0.00,WUHU216HW,2013-03-06 07:00:00,
2013-03-06 02:05:00,43.6,40.0,29.46,West,270,0.2,1.1,87,0.00,,,0.00,WUHU216HW,2013-03-06 07:05:00,
2013-03-06 02:10:00,43.6,40.0,29.46,WSW,248,0.2,1.1,87,0.00,,,0.00,WUHU216HW,2013-03-06 07:10:00,
2013-03-06 02:15:00,43.6,40.0,29.45,West,270,1.8,1.8,87,0.00,,,0.00,WUHU216HW,2013-03-06 07:15:00,
2013-03-06 02:20:00,43.6,40.0,29.45,SW,225,0.0,2.5,87,0.00,,,0.00,WUHU216HW,2013-03-06 07:20:00,
2013-03-06 02:25:00,43.6,40.0,29.46,West,270,0.0,2.5,87,0.00,,,0.00,WUHU216HW,2013-03-06 07:25:00,
2013-03-06 02:30:00,43.4,39.8,29.45,West,270,0.0,0.4,87,0.00,,,0.00,WUHU216HW,2013-03-06 07:30:00,
2013-03-06 02:35:00,43.4,40.1,29.45,WNW,293,0.4,0.7,88,0.00,,,0.00,WUHU216HW,2013-03-06 07:35:00,
2013-03-06 02:40:00,43.6,40.0,29.45,WSW,248,0.2,1.6,87,0.00,,,0.00,WUHU216HW,2013-03-06 07:40:00,
2013-03-06 02:45:00,43.6,40.2,29.45,WSW,248,0.4,1.6,88,0.00,,,0.00,WUHU216HW,2013-03-06 07:45:00,
2013-03-06 02:50:00,43.6,40.2,29.45,WNW,293,1.8,1.8,88,0.00,,,0.00,WUHU216HW,2013-03-06 07:50:00,
2013-03-06 02:55:00,43.7,40.8,29.45,WNW,293,4.0,4.0,89,0.00,,,0.00,WUHU216HW,2013-03-06 07:55:00,
2013-03-06 03:00:00,44.1,41.4,29.46,NW,315,4.0,4.0,90,0.00,,,0.00,WUHU216HW,2013-03-06 08:00:00,
2013-03-06 03:05:00,44.1,41.1,29.47,West,270,2.7,5.4,89,0.00,,,0.00,WUHU216HW,2013-03-06 08:05:00,
2013-03-06 03:10:00,43.9,41.0,29.46,NW,315,1.8,5.4,89,0.00,,,0.00,WUHU216HW,2013-03-06 08:10:00,
2013-03-06 03:15:00,43.6,40.2,29.46,NNW,338,0.0,3.6,88,0.00,,,0.00,WUHU216HW,2013-03-06 08:15:00,
2013-03-06 03:20:00,43.6,40.2,29.47,WNW,293,0.9,2.7,88,0.00,,,0.00,WUHU216HW,2013-03-06 08:20:00,
2013-03-06 03:25:00,43.4,40.1,29.47,West,270,1.1,2.9,88,0.00,,,0.00,WUHU216HW,2013-03-06 08:25:00,
2013-03-06 03:30:00,43.2,39.9,29.47,WNW,293,2.2,3.1,88,0.00,,,0.00,WUHU216HW,2013-03-06 08:30:00,
2013-03-06 03:35:00,43.2,39.6,29.48,West,270,2.5,3.1,87,0.00,,,0.00,WUHU216HW,2013-03-06 08:35:00,
2013-03-06 03:40:00,43.0,39.4,29.48,East,90,3.4,3.4,87,0.00,,,0.00,WUHU216HW,2013-03-06 08:40:00,
2013-03-06 03:45:00,42.8,39.3,29.48,West,270,2.2,4.5,87,0.00,,,0.00,WUHU216HW,2013-03-06 08:45:00,
2013-03-06 03:50:00,42.7,38.7,29.48,West,270,1.8,4.5,86,0.00,,,0.00,WUHU216HW,2013-03-06 08:50:00,
2013-03-06 03:55:00,42.5,38.5,29.49,WSW,248,4.7,4.7,86,0.00,,,0.00,WUHU216HW,2013-03-06 08:55:00,
2013-03-06 04:00:00,42.3,38.3,29.49,WNW,293,2.5,4.7,86,0.00,,,0.00,WUHU216HW,2013-03-06 09:00:00,
2013-03-06 04:05:00,42.1,38.5,29.49,West,270,2.0,4.7,87,0.00,,,0.00,WUHU216HW,2013-03-06 09:05:00,
2013-03-06 04:10:00,42.1,38.2,29.49,NW,315,1.8,4.7,86,0.00,,,0.00,WUHU216HW,2013-03-06 09:10:00,
2013-03-06 04:15:00,41.9,38.0,29.49,NW,315,2.2,3.8,86,0.00,,,0.00,WUHU216HW,2013-03-06 09:15:00,
2013-03-06 04:20:00,41.9,38.0,29.49,NNW,338,3.1,3.4,86,0.00,,,0.00,WUHU216HW,2013-03-06 09:20:00,
2013-03-06 04:25:00,41.8,37.8,29.49,NW,315,1.8,3.4,86,0.00,,,0.00,WUHU216HW,2013-03-06 09:25:00,
2013-03-06 04:30:00,41.6,37.6,29.49,NW,315,3.8,3.8,86,0.00,,,0.00,WUHU216HW,2013-03-06 09:30:00,
2013-03-06 04:35:00,41.4,37.4,29.49,NW,315,2.5,3.8,86,0.00,,,0.00,WUHU216HW,2013-03-06 09:35:00,
2013-03-06 04:40:00,41.4,37.4,29.50,WNW,293,1.3,3.8,86,0.00,,,0.00,WUHU216HW,2013-03-06 09:40:00,
2013-03-06 04:45:00,41.4,37.4,29.50,WNW,293,2.5,3.4,86,0.00,,,0.00,WUHU216HW,2013-03-06 09:45:00,
2013-03-06 04:50:00,41.4,37.4,29.50,West,270,2.9,3.8,86,0.00,,,0.00,WUHU216HW,2013-03-06 09:50:00,
2013-03-06 04:55:00,41.4,37.4,29.50,WSW,248,1.1,3.8,86,0.00,,,0.00,WUHU216HW,2013-03-06 09:55:00,
2013-03-06 05:00:00,41.4,37.4,29.51,WNW,293,1.3,3.6,86,0.00,,,0.00,WUHU216HW,2013-03-06 10:00:00,
2013-03-06 05:05:00,41.2,37.3,29.51,WSW,248,4.5,4.5,86,0.00,,,0.00,WUHU216HW,2013-03-06 10:05:00,
2013-03-06 05:10:00,41.0,36.8,29.51,WNW,293,1.8,4.5,85,0.00,,,0.00,WUHU216HW,2013-03-06 10:10:00,
2013-03-06 05:15:00,41.0,36.8,29.51,NW,315,1.6,5.4,85,0.00,,,0.00,WUHU216HW,2013-03-06 10:15:00,
2013-03-06 05:20:00,40.9,36.4,29.51,North,0,3.4,5.4,84,0.00,,,0.00,WUHU216HW,2013-03-06 10:20:00,
2013-03-06 05:25:00,40.7,36.2,29.52,NNW,338,1.1,11.4,84,0.00,,,0.00,WUHU216HW,2013-03-06 10:25:00,
2013-03-06 05:30:00,40.5,36.0,29.52,NNW,338,1.3,11.4,84,0.00,,,0.00,WUHU216HW,2013-03-06 10:30:00,
2013-03-06 05:35:00,40.1,35.6,29.53,WNW,293,2.9,6.7,84,0.00,,,0.00,WUHU216HW,2013-03-06 10:35:00,
2013-03-06 05:40:00,40.0,35.2,29.53,NNW,338,4.0,5.4,83,0.00,,,0.00,WUHU216HW,2013-03-06 10:40:00,
2013-03-06 05:45:00,40.0,35.2,29.53,WNW,293,2.5,5.4,83,0.00,,,0.00,WUHU216HW,2013-03-06 10:45:00,
2013-03-06 05:50:00,39.8,35.0,29.54,NW,315,2.0,4.0,83,0.00,,,0.00,WUHU216HW,2013-03-06 10:50:00,
2013-03-06 05:55:00,39.6,34.6,29.53,WSW,248,3.1,5.1,82,0.00,,,0.00,WUHU216HW,2013-03-06 10:55:00,
2013-03-06 06:00:00,39.2,34.2,29.54,WNW,293,4.9,5.1,82,0.00,,,0.00,WUHU216HW,2013-03-06 11:00:00,
2013-03-06 06:05:00,39.2,34.2,29.54,NW,315,3.4,4.9,82,0.00,,,0.00,WUHU216HW,2013-03-06 11:05:00,
2013-03-06 06:10:00,39.1,34.0,29.54,West,270,2.5,4.9,82,0.00,,,0.00,WUHU216HW,2013-03-06 11:10:00,
2013-03-06 06:15:00,39.1,34.0,29.55,North,0,2.5,4.0,82,0.00,,,0.00,WUHU216HW,2013-03-06 11:15:00,
2013-03-06 06:20:00,38.9,33.8,29.55,West,270,2.5,4.3,82,0.00,,,0.00,WUHU216HW,2013-03-06 11:20:00,
2013-03-06 06:25:00,38.9,34.2,29.55,WNW,293,2.2,4.7,83,0.00,,,0.00,WUHU216HW,2013-03-06 11:25:00,
2013-03-06 06:30:00,38.9,33.8,29.55,NW,315,2.5,4.7,82,0.00,,,0.00,WUHU216HW,2013-03-06 11:30:00,
2013-03-06 06:35:00,38.7,33.7,29.55,WNW,293,1.1,4.9,82,0.00,,,0.00,WUHU216HW,2013-03-06 11:35:00,
2013-03-06 06:40:00,38.7,33.7,29.55,WNW,293,1.1,4.9,82,0.00,,,0.00,WUHU216HW,2013-03-06 11:40:00,
2013-03-06 06:45:00,38.7,33.7,29.54,NW,315,1.8,4.3,82,0.00,,,0.00,WUHU216HW,2013-03-06 11:45:00,
2013-03-06 06:50:00,38.5,33.5,29.54,West,270,2.2,4.5,82,0.00,,,0.00,WUHU216HW,2013-03-06 11:50:00,
2013-03-06 06:55:00,38.7,33.7,29.55,West,270,4.7,4.7,82,0.00,,,0.00,WUHU216HW,2013-03-06 11:55:00,
2013-03-06 07:00:00,38.7,33.7,29.55,West,270,2.9,4.7,82,0.00,,,0.00,WUHU216HW,2013-03-06 12:00:00,
2013-03-06 07:05:00,38.7,33.7,29.55,West,270,2.5,5.4,82,0.00,,,0.00,WUHU216HW,2013-03-06 12:05:00,
2013-03-06 07:10:00,38.7,33.4,29.55,West,270,3.8,5.4,81,0.00,,,0.00,WUHU216HW,2013-03-06 12:10:00,
2013-03-06 07:15:00,38.7,33.4,29.56,NW,315,0.9,4.7,81,0.00,,,0.00,WUHU216HW,2013-03-06 12:15:00,
2013-03-06 07:20:00,38.9,33.6,29.56,WNW,293,0.9,4.7,81,0.00,,,0.00,WUHU216HW,2013-03-06 12:20:00,
2013-03-06 07:25:00,38.7,33.4,29.56,NW,315,3.6,4.5,81,0.00,,,0.00,WUHU216HW,2013-03-06 12:25:00,
2013-03-06 07:30:00,38.9,33.6,29.56,West,270,3.1,4.5,81,0.00,,,0.00,WUHU216HW,2013-03-06 12:30:00,
2013-03-06 07:35:00,39.1,33.8,29.57,West,270,2.2,4.7,81,0.00,,,0.00,WUHU216HW,2013-03-06 12:35:00,
2013-03-06 07:40:00,39.1,33.8,29.57,West,270,2.7,6.0,81,0.00,,,0.00,WUHU216HW,2013-03-06 12:40:00,
2013-03-06 07:45:00,39.1,33.8,29.57,West,270,2.5,6.0,81,0.00,,,0.00,WUHU216HW,2013-03-06 12:45:00,
2013-03-06 07:50:00,39.2,33.9,29.57,West,270,2.7,4.7,81,0.00,,,0.00,WUHU216HW,2013-03-06 12:50:00,
2013-03-06 07:55:00,39.2,33.9,29.58,NW,315,2.7,4.9,81,0.00,,,0.00,WUHU216HW,2013-03-06 12:55:00,
2013-03-06 08:00:00,39.2,33.9,29.58,West,270,4.0,6.3,81,0.00,,,0.00,WUHU216HW,2013-03-06 13:00:00,
2013-03-06 08:05:00,39.1,33.8,29.58,WSW,248,4.5,6.3,81,0.00,,,0.00,WUHU216HW,2013-03-06 13:05:00,
2013-03-06 08:10:00,39.1,33.1,29.58,WNW,293,3.4,6.3,79,0.00,,,0.00,WUHU216HW,2013-03-06 13:10:00,
2013-03-06 08:15:00,39.1,33.1,29.58,WNW,293,2.9,6.3,79,0.00,,,0.00,WUHU216HW,2013-03-06 13:15:00,
2013-03-06 08:20:00,39.1,33.1,29.58,WNW,293,3.6,5.6,79,0.00,,,0.00,WUHU216HW,2013-03-06 13:20:00,
2013-03-06 08:25:00,39.2,33.3,29.58,West,270,3.1,4.9,79,0.00,,,0.00,WUHU216HW,2013-03-06 13:25:00,
2013-03-06 08:30:00,39.4,33.5,29.59,West,270,1.8,5.4,79,0.00,,,0.00,WUHU216HW,2013-03-06 13:30:00,
2013-03-06 08:35:00,39.6,33.7,29.58,West,270,3.4,5.4,79,0.00,,,0.00,WUHU216HW,2013-03-06 13:35:00,
2013-03-06 08:40:00,39.6,33.3,29.58,West,270,4.7,5.1,78,0.00,,,0.00,WUHU216HW,2013-03-06 13:40:00,
2013-03-06 08:45:00,39.8,33.1,29.59,WSW,248,2.5,6.3,77,0.00,,,0.00,WUHU216HW,2013-03-06 13:45:00,
2013-03-06 08:50:00,39.8,32.1,29.59,NW,315,3.6,7.4,74,0.00,,,0.00,WUHU216HW,2013-03-06 13:50:00,
2013-03-06 08:55:00,39.8,32.1,29.59,West,270,4.0,7.4,74,0.00,,,0.00,WUHU216HW,2013-03-06 13:55:00,
2013-03-06 09:00:00,40.0,32.7,29.59,WNW,293,3.6,6.3,75,0.00,,,0.00,WUHU216HW,2013-03-06 14:00:00,
2013-03-06 09:05:00,40.1,32.5,29.59,NNW,338,2.5,6.3,74,0.00,,,0.00,WUHU216HW,2013-03-06 14:05:00,
2013-03-06 09:10:00,40.0,31.6,29.59,West,270,8.1,10.7,72,0.00,,,0.00,WUHU216HW,2013-03-06 14:10:00,
2013-03-06 09:15:00,40.0,31.6,29.59,West,270,4.0,10.7,72,0.00,,,0.00,WUHU216HW,2013-03-06 14:15:00,
2013-03-06 09:20:00,40.1,31.8,29.59,West,270,5.8,8.1,72,0.00,,,0.00,WUHU216HW,2013-03-06 14:20:00,
2013-03-06 09:25:00,40.1,31.5,29.59,NNW,338,6.3,7.8,71,0.00,,,0.00,WUHU216HW,2013-03-06 14:25:00,
2013-03-06 09:30:00,40.3,31.7,29.59,West,270,5.4,7.8,71,0.00,,,0.00,WUHU216HW,2013-03-06 14:30:00,
2013-03-06 09:35:00,40.3,31.7,29.59,WSW,248,8.3,8.9,71,0.00,,,0.00,WUHU216HW,2013-03-06 14:35:00,
2013-03-06 09:40:00,40.3,31.3,29.59,West,270,4.7,9.2,70,0.00,,,0.00,WUHU216HW,2013-03-06 14:40:00,
2013-03-06 09:45:00,40.3,30.2,29.59,WNW,293,2.7,9.2,67,0.00,,,0.00,WUHU216HW,2013-03-06 14:45:00,
2013-03-06 09:50:00,40.5,31.2,29.59,West,270,2.7,8.5,69,0.00,,,0.00,WUHU216HW,2013-03-06 14:50:00,
2013-03-06 09:55:00,40.9,31.2,29.59,SW,225,7.4,8.3,68,0.00,,,0.00,WUHU216HW,2013-03-06 14:55:00,
2013-03-06 10:00:00,41.0,31.3,29.59,WNW,293,1.8,7.4,68,0.00,,,0.00,WUHU216HW,2013-03-06 15:00:00,
2013-03-06 10:05:00,41.4,31.2,29.59,West,270,5.4,8.5,67,0.00,,,0.00,WUHU216HW,2013-03-06 15:05:00,
2013-03-06 10:10:00,41.6,31.4,29.59,WNW,293,4.3,8.5,67,0.00,,,0.00,WUHU216HW,2013-03-06 15:10:00,
2013-03-06 10:15:00,41.9,31.4,29.59,WNW,293,6.3,9.2,66,0.00,,,0.00,WUHU216HW,2013-03-06 15:15:00,
2013-03-06 10:20:00,41.9,31.0,29.59,NW,315,6.3,11.6,65,0.00,,,0.00,WUHU216HW,2013-03-06 15:20:00,
2013-03-06 10:25:00,41.9,31.0,29.59,NNE,23,4.0,11.6,65,0.00,,,0.00,WUHU216HW,2013-03-06 15:25:00,
2013-03-06 10:30:00,41.9,30.6,29.60,WNW,293,4.7,7.8,64,0.00,,,0.00,WUHU216HW,2013-03-06 15:30:00,
2013-03-06 10:35:00,41.9,30.6,29.60,WSW,248,3.4,8.3,64,0.00,,,0.00,WUHU216HW,2013-03-06 15:35:00,
2013-03-06 10:40:00,41.9,30.6,29.60,NW,315,4.7,9.6,64,0.00,,,0.00,WUHU216HW,2013-03-06 15:40:00,
2013-03-06 10:45:00,41.9,30.3,29.60,West,270,4.5,9.6,63,0.00,,,0.00,WUHU216HW,2013-03-06 15:45:00,
2013-03-06 10:50:00,41.9,29.9,29.60,WNW,293,4.9,8.7,62,0.00,,,0.00,WUHU216HW,2013-03-06 15:50:00,
2013-03-06 10:55:00,41.9,29.9,29.60,West,270,7.4,8.7,62,0.00,,,0.00,WUHU216HW,2013-03-06 15:55:00,
2013-03-06 11:00:00,41.9,29.9,29.61,WNW,293,8.1,9.2,62,0.00,,,0.00,WUHU216HW,2013-03-06 16:00:00,
2013-03-06 11:05:00,41.9,29.9,29.61,West,270,4.9,9.2,62,0.00,,,0.00,WUHU216HW,2013-03-06 16:05:00,
2013-03-06 11:10:00,42.1,28.8,29.61,NNW,338,9.2,9.2,59,0.00,,,0.00,WUHU216HW,2013-03-06 16:10:00,
2013-03-06 11:15:00,42.1,29.3,29.61,NNW,338,6.0,9.2,60,0.00,,,0.00,WUHU216HW,2013-03-06 16:15:00,
2013-03-06 11:20:00,42.1,29.3,29.61,West,270,7.2,9.2,60,0.00,,,0.00,WUHU216HW,2013-03-06 16:20:00,
2013-03-06 11:25:00,42.5,29.5,29.62,West,270,8.7,12.8,60,0.00,,,0.00,WUHU216HW,2013-03-06 16:25:00,
2013-03-06 11:30:00,42.5,29.2,29.62,North,0,3.4,12.8,59,0.00,,,0.00,WUHU216HW,2013-03-06 16:30:00,
2013-03-06 11:35:00,42.8,29.9,29.62,West,270,6.7,8.7,60,0.00,,,0.00,WUHU216HW,2013-03-06 16:35:00,
2013-03-06 11:40:00,42.8,29.9,29.62,NW,315,1.8,6.7,60,0.00,,,0.00,WUHU216HW,2013-03-06 16:40:00,
2013-03-06 11:45:00,42.8,29.4,29.62,NW,315,2.5,6.7,59,0.00,,,0.00,WUHU216HW,2013-03-06 16:45:00,
2013-03-06 11:50:00,42.8,29.0,29.62,NW,315,2.9,8.3,58,0.00,,,0.00,WUHU216HW,2013-03-06 16:50:00,
2013-03-06 11:55:00,42.8,29.9,29.62,WNW,293,4.9,8.3,60,0.00,,,0.00,WUHU216HW,2013-03-06 16:55:00,
2013-03-06 12:00:00,42.7,29.7,29.62,WNW,293,4.3,7.8,60,0.00,,,0.00,WUHU216HW,2013-03-06 17:00:00,
2013-03-06 12:05:00,42.8,30.2,29.62,West,270,9.4,9.4,61,0.00,,,0.00,WUHU216HW,2013-03-06 17:05:00,
2013-03-06 12:10:00,42.8,30.2,29.62,WSW,248,5.4,9.4,61,0.00,,,0.00,WUHU216HW,2013-03-06 17:10:00,
2013-03-06 12:15:00,42.8,30.2,29.62,SW,225,6.5,9.4,61,0.00,,,0.00,WUHU216HW,2013-03-06 17:15:00,
2013-03-06 12:20:00,43.0,30.1,29.62,West,270,7.4,7.4,60,0.00,,,0.00,WUHU216HW,2013-03-06 17:20:00,
2013-03-06 12:25:00,43.0,30.1,29.62,West,270,3.4,7.4,60,0.00,,,0.00,WUHU216HW,2013-03-06 17:25:00,
2013-03-06 12:30:00,43.0,29.2,29.62,West,270,4.3,7.4,58,0.00,,,0.00,WUHU216HW,2013-03-06 17:30:00,
2013-03-06 12:35:00,43.2,29.3,29.62,NW,315,6.0,7.2,58,0.00,,,0.00,WUHU216HW,2013-03-06 17:35:00,
2013-03-06 12:40:00,43.2,28.9,29.62,WNW,293,6.3,7.6,57,0.00,,,0.00,WUHU216HW,2013-03-06 17:40:00,
2013-03-06 12:45:00,43.2,28.5,29.62,NW,315,3.4,7.6,56,0.00,,,0.00,WUHU216HW,2013-03-06 17:45:00,
2013-03-06 12:50:00,43.4,29.1,29.62,NW,315,4.5,7.2,57,0.00,,,0.00,WUHU216HW,2013-03-06 17:50:00,
2013-03-06 12:55:00,43.6,28.8,29.62,WNW,293,8.5,9.4,56,0.00,,,0.00,WUHU216HW,2013-03-06 17:55:00,
2013-03-06 13:00:00,43.6,28.5,29.63,WNW,293,4.7,11.0,55,0.00,,,0.00,WUHU216HW,2013-03-06 18:00:00,
2013-03-06 13:05:00,43.7,29.0,29.62,WNW,293,7.2,11.0,56,0.00,,,0.00,WUHU216HW,2013-03-06 18:05:00,
2013-03-06 13:10:00,43.9,29.2,29.62,NW,315,4.0,8.5,56,0.00,,,0.00,WUHU216HW,2013-03-06 18:10:00,
2013-03-06 13:15:00,44.1,29.3,29.63,NW,315,4.7,8.5,56,0.00,,,0.00,WUHU216HW,2013-03-06 18:15:00,
2013-03-06 13:20:00,44.1,28.9,29.62,WNW,293,4.9,8.5,55,0.00,,,0.00,WUHU216HW,2013-03-06 18:20:00,
2013-03-06 13:25:00,44.1,28.9,29.63,WNW,293,6.0,9.8,55,0.00,,,0.00,WUHU216HW,2013-03-06 18:25:00,
2013-03-06 13:30:00,44.3,29.1,29.63,NW,315,6.5,9.8,55,0.00,,,0.00,WUHU216HW,2013-03-06 18:30:00,
2013-03-06 13:35:00,44.5,29.7,29.63,WNW,293,5.4,9.2,56,0.00,,,0.00,WUHU216HW,2013-03-06 18:35:00,
2013-03-06 13:40:00,45.0,29.4,29.63,NNW,338,6.5,7.6,54,0.00,,,0.00,WUHU216HW,2013-03-06 18:40:00,
2013-03-06 13:45:00,45.0,29.8,29.64,NNW,338,3.1,7.6,55,0.00,,,0.00,WUHU216HW,2013-03-06 18:45:00,
2013-03-06 13:50:00,45.2,29.4,29.64,WNW,293,6.9,9.4,54,0.00,,,0.00,WUHU216HW,2013-03-06 18:50:00,
2013-03-06 13:55:00,45.4,30.1,29.64,NW,315,3.4,9.4,55,0.00,,,0.00,WUHU216HW,2013-03-06 18:55:00,
2013-03-06 14:00:00,45.7,30.9,29.65,WNW,293,5.6,9.2,56,0.00,,,0.00,WUHU216HW,2013-03-06 19:00:00,
2013-03-06 14:05:00,45.7,30.9,29.65,NNE,23,4.0,10.1,56,0.00,,,0.00,WUHU216HW,2013-03-06 19:05:00,
2013-03-06 14:10:00,45.7,30.4,29.65,WNW,293,4.5,12.5,55,0.00,,,0.00,WUHU216HW,2013-03-06 19:10:00,
2013-03-06 14:15:00,45.9,31.1,29.65,WNW,293,6.3,12.5,56,0.00,,,0.00,WUHU216HW,2013-03-06 19:15:00,
2013-03-06 14:20:00,45.9,31.1,29.64,NW,315,6.3,7.4,56,0.00,,,0.00,WUHU216HW,2013-03-06 19:20:00,
2013-03-06 14:25:00,45.9,30.6,29.65,WNW,293,4.5,10.7,55,0.00,,,0.00,WUHU216HW,2013-03-06 19:25:00,
2013-03-06 14:30:00,46.3,31.8,29.65,WNW,293,4.7,10.7,57,0.00,,,0.00,WUHU216HW,2013-03-06 19:30:00,
2013-03-06 14:35:00,46.1,31.1,29.65,NW,315,4.7,8.1,56,0.00,,,0.00,WUHU216HW,2013-03-06 19:35:00,
2013-03-06 14:40:00,46.1,31.1,29.66,NNE,23,6.9,8.5,56,0.00,,,0.00,WUHU216HW,2013-03-06 19:40:00,
2013-03-06 14:45:00,45.7,31.3,29.66,NW,315,6.3,8.7,57,0.00,,,0.00,WUHU216HW,2013-03-06 19:45:00,
2013-03-06 14:50:00,45.7,31.3,29.66,WNW,293,5.1,8.7,57,0.00,,,0.00,WUHU216HW,2013-03-06 19:50:00,
2013-03-06 14:55:00,46.1,31.6,29.67,West,270,4.0,9.8,57,0.00,,,0.00,WUHU216HW,2013-03-06 19:55:00,
2013-03-06 15:00:00,46.3,31.8,29.67,North,0,3.4,9.8,57,0.00,,,0.00,WUHU216HW,2013-03-06 20:00:00,
2013-03-06 15:05:00,46.8,32.3,29.67,NW,315,3.1,7.4,57,0.00,,,0.00,WUHU216HW,2013-03-06 20:05:00,
2013-03-06 15:10:00,46.8,31.9,29.67,NNW,338,5.6,7.6,56,0.00,,,0.00,WUHU216HW,2013-03-06 20:10:00,
2013-03-06 15:15:00,46.6,31.7,29.68,NW,315,6.3,9.2,56,0.00,,,0.00,WUHU216HW,2013-03-06 20:15:00,
2013-03-06 15:20:00,46.6,32.1,29.68,NW,315,5.1,9.2,57,0.00,,,0.00,WUHU216HW,2013-03-06 20:20:00,
2013-03-06 15:25:00,46.4,32.0,29.69,NW,315,1.6,9.2,57,0.00,,,0.00,WUHU216HW,2013-03-06 20:25:00,
2013-03-06 15:30:00,46.4,32.0,29.69,WSW,248,3.8,9.2,57,0.00,,,0.00,WUHU216HW,2013-03-06 20:30:00,
2013-03-06 15:35:00,46.3,31.8,29.69,NW,315,3.4,6.0,57,0.00,,,0.00,WUHU216HW,2013-03-06 20:35:00,
2013-03-06 15:40:00,46.3,31.8,29.70,NW,315,2.0,6.9,57,0.00,,,0.00,WUHU216HW,2013-03-06 20:40:00,
2013-03-06 15:45:00,46.3,31.8,29.70,NW,315,8.5,8.9,57,0.00,,,0.00,WUHU216HW,2013-03-06 20:45:00,
2013-03-06 15:50:00,46.4,32.0,29.71,NNW,338,5.1,8.9,57,0.00,,,0.00,WUHU216HW,2013-03-06 20:50:00,
2013-03-06 15:55:00,46.3,31.8,29.72,NW,315,4.7,10.3,57,0.00,,,0.00,WUHU216HW,2013-03-06 20:55:00,
2013-03-06 16:00:00,46.4,32.0,29.72,WNW,293,3.6,10.3,57,0.00,,,0.00,WUHU216HW,2013-03-06 21:00:00,
2013-03-06 16:05:00,46.4,32.0,29.72,NW,315,4.7,8.1,57,0.00,,,0.00,WUHU216HW,2013-03-06 21:05:00,
2013-03-06 16:10:00,46.3,31.8,29.73,NW,315,5.1,6.9,57,0.00,,,0.00,WUHU216HW,2013-03-06 21:10:00,
2013-03-06 16:15:00,46.3,31.8,29.73,NW,315,3.4,6.9,57,0.00,,,0.00,WUHU216HW,2013-03-06 21:15:00,
2013-03-06 16:20:00,46.3,32.2,29.74,North,0,5.4,6.0,58,0.00,,,0.00,WUHU216HW,2013-03-06 21:20:00,
2013-03-06 16:25:00,46.3,32.2,29.74,WNW,293,3.4,11.2,58,0.00,,,0.00,WUHU216HW,2013-03-06 21:25:00,
2013-03-06 16:30:00,46.1,32.0,29.75,NNW,338,4.7,11.2,58,0.00,,,0.00,WUHU216HW,2013-03-06 21:30:00,
2013-03-06 16:35:00,46.1,32.0,29.75,WSW,248,2.2,9.8,58,0.00,,,0.00,WUHU216HW,2013-03-06 21:35:00,
2013-03-06 16:40:00,46.1,32.5,29.76,NW,315,4.7,6.7,59,0.00,,,0.00,WUHU216HW,2013-03-06 21:40:00,
2013-03-06 16:45:00,46.3,32.7,29.76,NNW,338,2.7,9.8,59,0.00,,,0.00,WUHU216HW,2013-03-06 21:45:00,
2013-03-06 16:50:00,46.1,32.9,29.77,West,270,2.9,9.8,60,0.00,,,0.00,WUHU216HW,2013-03-06 21:50:00,
2013-03-06 16:55:00,46.1,32.9,29.77,NNW,338,9.4,9.4,60,0.00,,,0.00,WUHU216HW,2013-03-06 21:55:00,
2013-03-06 17:00:00,45.9,33.6,29.78,NW,315,6.9,9.4,62,0.00,,,0.00,WUHU216HW,2013-03-06 22:00:00,
2013-03-06 17:05:00,45.4,33.8,29.78,NNW,338,8.3,9.4,64,0.00,,,0.00,WUHU216HW,2013-03-06 22:05:00,
2013-03-06 17:10:00,45.2,34.1,29.79,NW,315,3.1,9.2,65,0.00,,,0.00,WUHU216HW,2013-03-06 22:10:00,
2013-03-06 17:15:00,44.8,34.9,29.80,West,270,2.7,8.3,68,0.00,,,0.00,WUHU216HW,2013-03-06 22:15:00,
2013-03-06 17:20:00,44.6,34.3,29.80,West,270,4.7,8.7,67,0.00,,,0.00,WUHU216HW,2013-03-06 22:20:00,
2013-03-06 17:25:00,44.5,34.2,29.80,NNW,338,3.4,8.7,67,0.00,,,0.00,WUHU216HW,2013-03-06 22:25:00,
2013-03-06 17:30:00,44.3,34.0,29.81,NW,315,2.5,7.6,67,0.00,,,0.00,WUHU216HW,2013-03-06 22:30:00,
2013-03-06 17:35:00,44.5,34.2,29.81,NW,315,6.3,14.1,67,0.00,,,0.00,WUHU216HW,2013-03-06 22:35:00,
2013-03-06 17:40:00,44.5,34.2,29.81,North,0,4.7,14.1,67,0.00,,,0.00,WUHU216HW,2013-03-06 22:40:00,
2013-03-06 17:45:00,44.5,33.8,29.82,NW,315,2.5,10.5,66,0.00,,,0.00,WUHU216HW,2013-03-06 22:45:00,
2013-03-06 17:50:00,44.3,33.6,29.82,NNW,338,5.6,10.5,66,0.00,,,0.00,WUHU216HW,2013-03-06 22:50:00,
2013-03-06 17:55:00,44.3,33.6,29.83,West,270,4.0,9.2,66,0.00,,,0.00,WUHU216HW,2013-03-06 22:55:00,
2013-03-06 18:00:00,44.3,34.0,29.83,North,0,6.9,10.5,67,0.00,,,0.00,WUHU216HW,2013-03-06 23:00:00,
2013-03-06 18:05:00,44.1,34.2,29.84,North,0,3.4,10.5,68,0.00,,,0.00,WUHU216HW,2013-03-06 23:05:00,
2013-03-06 18:10:00,43.9,34.0,29.84,North,0,1.8,8.9,68,0.00,,,0.00,WUHU216HW,2013-03-06 23:10:00,
2013-03-06 18:15:00,43.9,34.0,29.84,NNE,23,4.7,7.6,68,0.00,,,0.00,WUHU216HW,2013-03-06 23:15:00,
2013-03-06 18:20:00,43.9,34.5,29.84,NNW,338,4.0,7.8,69,0.00,,,0.00,WUHU216HW,2013-03-06 23:20:00,
2013-03-06 18:25:00,43.9,34.5,29.85,NW,315,2.7,7.8,69,0.00,,,0.00,WUHU216HW,2013-03-06 23:25:00,
2013-03-06 18:30:00,43.9,34.5,29.85,NW,315,1.8,5.4,69,0.00,,,0.00,WUHU216HW,2013-03-06 23:30:00,
2013-03-06 18:35:00,43.9,34.8,29.85,NW,315,6.3,9.2,70,0.00,,,0.00,WUHU216HW,2013-03-06 23:35:00,
2013-03-06 18:40:00,43.7,34.3,29.86,NW,315,1.3,9.2,69,0.00,,,0.00,WUHU216HW,2013-03-06 23:40:00,
2013-03-06 18:45:00,43.7,34.3,29.86,NNW,338,1.3,6.3,69,0.00,,,0.00,WUHU216HW,2013-03-06 23:45:00,
2013-03-06 18:50:00,43.7,34.7,29.87,NW,315,1.8,6.5,70,0.00,,,0.00,WUHU216HW,2013-03-06 23:50:00,
2013-03-06 18:55:00,43.9,34.8,29.87,NNW,338,4.0,6.5,70,0.00,,,0.00,WUHU216HW,2013-03-06 23:55:00,
2013-03-06 19:00:00,43.7,35.0,29.88,NNE,23,2.5,6.7,71,0.00,,,0.00,WUHU216HW,2013-03-07 00:00:00,
2013-03-06 19:05:00,43.6,34.5,29.88,NNW,338,1.1,6.7,70,0.00,,,0.00,WUHU216HW,2013-03-07 00:05:00,
2013-03-06 19:10:00,43.4,34.7,29.88,NNW,338,0.7,6.3,71,0.00,,,0.00,WUHU216HW,2013-03-07 00:10:00,
2013-03-06 19:15:00,43.4,34.7,29.89,North,0,3.8,6.3,71,0.00,,,0.00,WUHU216HW,2013-03-07 00:15:00,
2013-03-06 19:20:00,43.4,34.7,29.89,NNW,338,1.1,4.9,71,0.00,,,0.00,WUHU216HW,2013-03-07 00:20:00,
2013-03-06 19:25:00,43.4,34.7,29.89,North,0,1.1,4.9,71,0.00,,,0.00,WUHU216HW,2013-03-07 00:25:00,
2013-03-06 19:30:00,43.4,34.7,29.89,NNW,338,1.3,3.6,71,0.00,,,0.00,WUHU216HW,2013-03-07 00:30:00,
2013-03-06 19:35:00,43.4,34.7,29.89,NNW,338,0.9,3.6,71,0.00,,,0.00,WUHU216HW,2013-03-07 00:35:00,
2013-03-06 19:40:00,43.4,34.7,29.90,NW,315,1.8,2.9,71,0.00,,,0.00,WUHU216HW,2013-03-07 00:40:00,
2013-03-06 19:45:00,43.4,34.7,29.90,North,0,2.2,2.7,71,0.00,,,0.00,WUHU216HW,2013-03-07 00:45:00,
2013-03-06 19:50:00,43.4,34.3,29.90,North,0,1.8,2.7,70,0.00,,,0.00,WUHU216HW,2013-03-07 00:50:00,
2013-03-06 19:55:00,43.4,34.3,29.91,NW,315,1.1,2.2,70,0.00,,,0.00,WUHU216HW,2013-03-07 00:55:00,
2013-03-06 20:00:00,43.6,34.5,29.90,North,0,1.1,5.4,70,0.00,,,0.00,WUHU216HW,2013-03-07 01:00:00,
2013-03-06 20:06:00,43.6,33.8,29.91,North,0,6.3,8.9,68,0.00,,,0.00,WUHU216HW,2013-03-07 01:06:00,
2013-03-06 20:11:00,43.7,33.8,29.91,NNE,23,0.7,8.9,68,0.00,,,0.00,WUHU216HW,2013-03-07 01:11:00,
2013-03-06 20:16:00,43.7,33.8,29.91,NE,45,1.1,4.5,68,0.00,,,0.00,WUHU216HW,2013-03-07 01:16:00,
2013-03-06 20:21:00,43.7,34.3,29.92,North,0,2.0,2.7,69,0.00,,,0.00,WUHU216HW,2013-03-07 01:21:00,
2013-03-06 20:26:00,43.6,34.5,29.92,North,0,1.8,5.4,70,0.00,,,0.00,WUHU216HW,2013-03-07 01:26:00,
2013-03-06 20:31:00,43.6,34.1,29.93,North,0,2.9,5.4,69,0.00,,,0.00,WUHU216HW,2013-03-07 01:31:00,
2013-03-06 20:36:00,43.7,33.1,29.92,North,0,4.7,9.2,66,0.00,,,0.00,WUHU216HW,2013-03-07 01:36:00,
2013-03-06 20:41:00,43.7,33.1,29.93,NW,315,4.0,9.2,66,0.00,,,0.00,WUHU216HW,2013-03-07 01:41:00,
2013-03-06 20:46:00,43.7,32.8,29.93,WNW,293,4.5,5.1,65,0.00,,,0.00,WUHU216HW,2013-03-07 01:46:00,
2013-03-06 20:51:00,43.9,32.1,29.94,North,0,2.5,10.5,63,0.00,,,0.00,WUHU216HW,2013-03-07 01:51:00,
2013-03-06 20:56:00,43.7,31.6,29.94,NNW,338,2.9,10.5,62,0.00,,,0.00,WUHU216HW,2013-03-07 01:56:00,
2013-03-06 21:01:00,43.7,32.0,29.94,NW,315,3.4,8.7,63,0.00,,,0.00,WUHU216HW,2013-03-07 02:01:00,
2013-03-06 21:06:00,43.7,32.0,29.94,NNW,338,1.8,4.7,63,0.00,,,0.00,WUHU216HW,2013-03-07 02:06:00,
2013-03-06 21:11:00,43.6,31.4,29.94,NW,315,3.1,5.4,62,0.00,,,0.00,WUHU216HW,2013-03-07 02:11:00,
2013-03-06 21:16:00,43.6,31.8,29.94,NNW,338,1.3,5.4,63,0.00,,,0.00,WUHU216HW,2013-03-07 02:16:00,
2013-03-06 21:21:00,43.4,31.2,29.94,NNW,338,1.3,4.7,62,0.00,,,0.00,WUHU216HW,2013-03-07 02:21:00,
2013-03-06 21:26:00,43.4,31.2,29.95,NNW,338,3.4,6.7,62,0.00,,,0.00,WUHU216HW,2013-03-07 02:26:00,
2013-03-06 21:31:00,43.2,31.1,29.95,NNW,338,3.6,6.7,62,0.00,,,0.00,WUHU216HW,2013-03-07 02:31:00,
2013-03-06 21:36:00,43.2,31.1,29.95,North,0,3.8,6.3,62,0.00,,,0.00,WUHU216HW,2013-03-07 02:36:00,
2013-03-06 21:41:00,43.2,31.1,29.95,NW,315,1.3,6.3,62,0.00,,,0.00,WUHU216HW,2013-03-07 02:41:00,
2013-03-06 21:46:00,43.4,31.2,29.95,North,0,1.8,5.4,62,0.00,,,0.00,WUHU216HW,2013-03-07 02:46:00,
2013-03-06 21:51:00,43.2,31.4,29.95,NW,315,2.9,4.0,63,0.00,,,0.00,WUHU216HW,2013-03-07 02:51:00,
2013-03-06 21:56:00,43.2,31.4,29.95,North,0,2.2,3.4,63,0.00,,,0.00,WUHU216HW,2013-03-07 02:56:00,
2013-03-06 22:01:00,43.2,31.4,29.95,West,270,2.5,3.4,63,0.00,,,0.00,WUHU216HW,2013-03-07 03:01:00,
2013-03-06 22:06:00,43.2,31.4,29.95,NNE,23,3.4,3.4,63,0.00,,,0.00,WUHU216HW,2013-03-07 03:06:00,
2013-03-06 22:11:00,43.0,31.7,29.96,NW,315,1.3,3.4,64,0.00,,,0.00,WUHU216HW,2013-03-07 03:11:00,
2013-03-06 22:16:00,42.8,31.5,29.96,NNW,338,1.3,2.5,64,0.00,,,0.00,WUHU216HW,2013-03-07 03:16:00,
2013-03-06 22:21:00,42.5,30.7,29.96,NW,315,1.8,6.0,63,0.00,,,0.00,WUHU216HW,2013-03-07 03:21:00,
2013-03-06 22:26:00,42.3,31.0,29.96,NW,315,1.3,6.0,64,0.00,,,0.00,WUHU216HW,2013-03-07 03:26:00,
2013-03-06 22:31:00,42.3,31.0,29.96,NNW,338,1.6,2.9,64,0.00,,,0.00,WUHU216HW,2013-03-07 03:31:00,
2013-03-06 22:36:00,42.1,30.8,29.96,NW,315,2.5,2.5,64,0.00,,,0.00,WUHU216HW,2013-03-07 03:36:00,
2013-03-06 22:41:00,41.9,30.6,29.96,NNE,23,0.2,2.5,64,0.00,,,0.00,WUHU216HW,2013-03-07 03:41:00,
2013-03-06 22:46:00,41.8,30.4,29.96,NW,315,0.9,4.3,64,0.00,,,0.00,WUHU216HW,2013-03-07 03:46:00,
2013-03-06 22:51:00,41.6,30.2,29.96,NW,315,3.6,4.3,64,0.00,,,0.00,WUHU216HW,2013-03-07 03:51:00,
2013-03-06 22:56:00,41.6,30.2,29.96,NW,315,1.6,3.6,64,0.00,,,0.00,WUHU216HW,2013-03-07 03:56:00,
2013-03-06 23:01:00,41.4,30.5,29.96,NNW,338,2.5,3.6,65,0.00,,,0.00,WUHU216HW,2013-03-07 04:01:00,
2013-03-06 23:06:00,41.2,30.3,29.97,WNW,293,3.8,3.8,65,0.00,,,0.00,WUHU216HW,2013-03-07 04:06:00,
2013-03-06 23:11:00,41.0,30.2,29.96,North,0,0.9,3.8,65,0.00,,,0.00,WUHU216HW,2013-03-07 04:11:00,
2013-03-06 23:16:00,40.9,30.0,29.96,WNW,293,2.9,4.0,65,0.00,,,0.00,WUHU216HW,2013-03-07 04:16:00,
2013-03-06 23:21:00,40.7,29.8,29.96,NW,315,2.5,4.0,65,0.00,,,0.00,WUHU216HW,2013-03-07 04:21:00,
2013-03-06 23:26:00,40.7,29.8,29.96,NW,315,1.6,3.8,65,0.00,,,0.00,WUHU216HW,2013-03-07 04:26:00,
2013-03-06 23:31:00,40.5,29.6,29.96,NNW,338,1.3,3.4,65,0.00,,,0.00,WUHU216HW,2013-03-07 04:31:00,
2013-03-06 23:36:00,40.3,29.8,29.96,NW,315,1.6,4.0,66,0.00,,,0.00,WUHU216HW,2013-03-07 04:36:00,
2013-03-06 23:41:00,40.3,29.4,29.96,NW,315,1.8,4.0,65,0.00,,,0.00,WUHU216HW,2013-03-07 04:41:00,
2013-03-06 23:46:00,40.1,29.6,29.96,NNW,338,1.6,3.1,66,0.00,,,0.00,WUHU216HW,2013-03-07 04:46:00,
2013-03-06 23:51:00,40.1,29.6,29.96,WNW,293,2.5,2.9,66,0.00,,,0.00,WUHU216HW,2013-03-07 04:51:00,
2013-03-06 23:56:00,40.0,29.4,29.96,WNW,293,2.2,2.9,66,0.00,,,0.00,WUHU216HW,2013-03-07 04:56:00,